Terminal Aerodrome Forecast
Issued by NWS

Home | Current Version | Previous Version | Text Only | Print | Product List | Glossary On
Versions: 1 2 3 4 5 6 7 8 9 10 11 12
000
FTUS42 KMLB 221100
TAFLEE
TAF
KLEE 221131Z 2212/2312 00000KT P6SM FEW250
     FM221400 VRB03KT P6SM SCT040
     FM222100 VRB04KT P6SM VCTS FEW030 SCT040CB
     FM230100 VRB03KT P6SM FEW080 SCT250=

USA.gov is the U.S. government's official web portal to all federal, state and local government web resources and services.